Alberton, Canada
Current Conditions -  °F | °C
As of 8:00 AM on Monday 20 Oct 2014 (Local Time) from CYQM Reporting Station
Scattered Clouds Scattered Clouds  
Wind Chill: 26°   Ceiling: Unl
Heat Index: 36°   Visibility: 15mi
Dew Point: 30°   Wind: 16mph
Humidity: 81%   Direction: 270°W
Pressure: 29.66"   Gusts: 23mph
Location:  46.8°N, 64.07°W
Report Text: CYQM 201100Z 27014G20KT 15SM SCT140 SCT220 02/M01 A2966 RMK AC3CI1 CI TR SLP045
Loading
Personal Weather Stations






























Interactive Weather Map
Tropical Storm Tracking
New forecast layout! Learn more

10-Day Weather Forecast

Advertisements
Track Severe Weather on mobile